sensor_id;sensor_type;location;lat;lon;timestamp;pressure;altitude;pressure_sealevel;temperature;humidity
829;BME280;396;52.558;13.188;2022-07-10T00:00:09;101508.66;;;14.94;75.76
829;BME280;396;52.558;13.188;2022-07-10T00:02:38;101512.69;;;14.96;75.89
829;BME280;396;52.558;13.188;2022-07-10T00:05:06;101515.59;;;15.00;75.63
829;BME280;396;52.558;13.188;2022-07-10T00:07:33;101504.19;;;14.98;76.05
829;BME280;396;52.558;13.188;2022-07-10T00:09:59;101508.53;;;14.99;75.27
829;BME280;396;52.558;13.188;2022-07-10T00:12:26;101513.69;;;15.00;75.43
829;BME280;396;52.558;13.188;2022-07-10T00:14:53;101503.97;;;15.08;74.73
829;BME280;396;52.558;13.188;2022-07-10T00:17:20;101508.00;;;15.10;74.92
829;BME280;396;52.558;13.188;2022-07-10T00:19:48;101504.97;;;15.12;74.68
829;BME280;396;52.558;13.188;2022-07-10T00:22:14;101516.25;;;15.19;74.26
829;BME280;396;52.558;13.188;2022-07-10T00:24:41;101505.47;;;15.14;74.57
829;BME280;396;52.558;13.188;2022-07-10T00:27:08;101505.56;;;15.09;74.14
829;BME280;396;52.558;13.188;2022-07-10T00:29:34;101503.34;;;15.11;75.10
829;BME280;396;52.558;13.188;2022-07-10T00:32:01;101495.03;;;15.16;74.74
829;BME280;396;52.558;13.188;2022-07-10T00:34:27;101505.81;;;15.21;74.19
829;BME280;396;52.558;13.188;2022-07-10T00:36:55;101498.25;;;15.18;73.86
829;BME280;396;52.558;13.188;2022-07-10T00:39:22;101501.63;;;15.15;73.76
829;BME280;396;52.558;13.188;2022-07-10T00:41:49;101498.50;;;15.08;74.54
829;BME280;396;52.558;13.188;2022-07-10T00:44:16;101498.31;;;15.04;74.45
829;BME280;396;52.558;13.188;2022-07-10T00:46:43;101486.97;;;15.11;74.37
829;BME280;396;52.558;13.188;2022-07-10T00:49:09;101490.38;;;15.17;74.10
829;BME280;396;52.558;13.188;2022-07-10T00:51:36;101486.38;;;15.14;75.46
829;BME280;396;52.558;13.188;2022-07-10T00:54:05;101481.59;;;15.20;73.98
829;BME280;396;52.558;13.188;2022-07-10T00:56:32;101478.06;;;15.19;74.44
829;BME280;396;52.558;13.188;2022-07-10T00:58:59;101484.50;;;15.23;74.24
829;BME280;396;52.558;13.188;2022-07-10T01:01:26;101475.00;;;15.21;73.88
829;BME280;396;52.558;13.188;2022-07-10T01:03:53;101468.53;;;15.17;73.66
829;BME280;396;52.558;13.188;2022-07-10T01:06:19;101468.34;;;15.13;73.78
829;BME280;396;52.558;13.188;2022-07-10T01:08:46;101474.31;;;15.15;73.65
829;BME280;396;52.558;13.188;2022-07-10T01:11:14;101478.06;;;15.19;73.77
829;BME280;396;52.558;13.188;2022-07-10T01:13:41;101459.38;;;15.12;74.09
829;BME280;396;52.558;13.188;2022-07-10T01:16:08;101457.88;;;15.06;74.69
829;BME280;396;52.558;13.188;2022-07-10T01:18:35;101454.22;;;15.11;74.37
829;BME280;396;52.558;13.188;2022-07-10T01:21:03;101458.75;;;15.16;74.22
829;BME280;396;52.558;13.188;2022-07-10T01:23:30;101461.97;;;15.18;74.04
829;BME280;396;52.558;13.188;2022-07-10T01:25:56;101460.28;;;15.08;74.18
829;BME280;396;52.558;13.188;2022-07-10T01:28:24;101467.56;;;15.12;74.14
829;BME280;396;52.558;13.188;2022-07-10T01:30:54;101465.16;;;15.11;74.02
829;BME280;396;52.558;13.188;2022-07-10T01:33:21;101455.03;;;15.11;74.19
829;BME280;396;52.558;13.188;2022-07-10T01:35:48;101461.41;;;15.07;75.22
829;BME280;396;52.558;13.188;2022-07-10T01:38:16;101442.94;;;15.04;75.28
829;BME280;396;52.558;13.188;2022-07-10T01:40:42;101437.00;;;15.02;75.02
829;BME280;396;52.558;13.188;2022-07-10T01:43:09;101445.38;;;15.05;75.11
829;BME280;396;52.558;13.188;2022-07-10T01:45:35;101435.88;;;15.03;75.00
829;BME280;396;52.558;13.188;2022-07-10T01:48:02;101449.84;;;15.01;75.46
829;BME280;396;52.558;13.188;2022-07-10T01:50:29;101446.28;;;15.01;75.70
829;BME280;396;52.558;13.188;2022-07-10T01:52:56;101452.66;;;14.96;76.22
829;BME280;396;52.558;13.188;2022-07-10T01:55:24;101449.56;;;14.89;76.57
829;BME280;396;52.558;13.188;2022-07-10T01:57:51;101453.91;;;14.90;76.62
829;BME280;396;52.558;13.188;2022-07-10T02:00:17;101461.59;;;14.88;77.10
829;BME280;396;52.558;13.188;2022-07-10T02:02:44;101458.47;;;14.81;77.93
829;BME280;396;52.558;13.188;2022-07-10T02:05:31;101454.34;;;14.83;78.93
829;BME280;396;52.558;13.188;2022-07-10T02:07:57;101463.63;;;14.82;79.04
829;BME280;396;52.558;13.188;2022-07-10T02:10:25;101449.19;;;14.82;78.80
829;BME280;396;52.558;13.188;2022-07-10T02:12:52;101458.34;;;14.86;78.74
829;BME280;396;52.558;13.188;2022-07-10T02:15:18;101450.91;;;14.78;78.95
829;BME280;396;52.558;13.188;2022-07-10T02:17:45;101455.34;;;14.74;79.38
829;BME280;396;52.558;13.188;2022-07-10T02:20:11;101448.88;;;14.83;79.11
829;BME280;396;52.558;13.188;2022-07-10T02:22:38;101440.50;;;14.80;79.40
829;BME280;396;52.558;13.188;2022-07-10T02:25:05;101450.09;;;14.77;78.83
829;BME280;396;52.558;13.188;2022-07-10T02:27:33;101446.88;;;14.75;78.80
829;BME280;396;52.558;13.188;2022-07-10T02:30:00;101447.69;;;14.76;78.69
829;BME280;396;52.558;13.188;2022-07-10T02:32:27;101447.28;;;14.69;79.15
829;BME280;396;52.558;13.188;2022-07-10T02:34:53;101446.63;;;14.63;79.30
829;BME280;396;52.558;13.188;2022-07-10T02:37:20;101445.22;;;14.66;79.00
829;BME280;396;52.558;13.188;2022-07-10T02:39:46;101455.41;;;14.60;79.31
829;BME280;396;52.558;13.188;2022-07-10T02:42:13;101445.00;;;14.62;79.19
829;BME280;396;52.558;13.188;2022-07-10T02:44:41;101446.13;;;14.61;79.35
829;BME280;396;52.558;13.188;2022-07-10T02:47:08;101443.88;;;14.63;79.25
829;BME280;396;52.558;13.188;2022-07-10T02:49:34;101447.84;;;14.57;80.27
829;BME280;396;52.558;13.188;2022-07-10T02:52:01;101434.38;;;14.60;79.86
829;BME280;396;52.558;13.188;2022-07-10T02:54:27;101437.31;;;14.64;79.91
829;BME280;396;52.558;13.188;2022-07-10T02:56:54;101442.28;;;14.62;79.97
829;BME280;396;52.558;13.188;2022-07-10T02:59:21;101441.16;;;14.63;79.83
829;BME280;396;52.558;13.188;2022-07-10T03:01:48;101442.09;;;14.58;80.10
829;BME280;396;52.558;13.188;2022-07-10T03:04:15;101438.47;;;14.49;80.46
829;BME280;396;52.558;13.188;2022-07-10T03:06:42;101436.03;;;14.48;81.35
829;BME280;396;52.558;13.188;2022-07-10T03:09:08;101437.03;;;14.52;80.75
829;BME280;396;52.558;13.188;2022-07-10T03:11:35;101440.06;;;14.50;81.03
829;BME280;396;52.558;13.188;2022-07-10T03:14:02;101442.88;;;14.45;81.29
829;BME280;396;52.558;13.188;2022-07-10T03:16:29;101440.16;;;14.45;81.39
829;BME280;396;52.558;13.188;2022-07-10T03:18:57;101440.56;;;14.38;82.36
829;BME280;396;52.558;13.188;2022-07-10T03:21:23;101434.31;;;14.38;82.19
829;BME280;396;52.558;13.188;2022-07-10T03:23:50;101437.03;;;14.38;82.45
829;BME280;396;52.558;13.188;2022-07-10T03:26:16;101434.31;;;14.38;82.47
829;BME280;396;52.558;13.188;2022-07-10T03:28:43;101430.56;;;14.34;83.25
829;BME280;396;52.558;13.188;2022-07-10T03:31:10;101431.00;;;14.27;83.57
829;BME280;396;52.558;13.188;2022-07-10T03:33:36;101427.84;;;14.34;83.68
829;BME280;396;52.558;13.188;2022-07-10T03:36:06;101430.78;;;14.37;83.41
829;BME280;396;52.558;13.188;2022-07-10T03:38:32;101429.28;;;14.31;83.76
829;BME280;396;52.558;13.188;2022-07-10T03:40:59;101430.19;;;14.27;84.49
829;BME280;396;52.558;13.188;2022-07-10T03:43:25;101434.13;;;14.34;83.95
829;BME280;396;52.558;13.188;2022-07-10T03:45:52;101431.91;;;14.36;84.01
829;BME280;396;52.558;13.188;2022-07-10T03:48:18;101422.31;;;14.39;83.85
829;BME280;396;52.558;13.188;2022-07-10T03:50:49;101417.16;;;14.37;84.07
829;BME280;396;52.558;13.188;2022-07-10T03:53:17;101425.44;;;14.32;84.34
829;BME280;396;52.558;13.188;2022-07-10T03:55:44;101422.81;;;14.27;85.04
829;BME280;396;52.558;13.188;2022-07-10T03:58:11;101431.50;;;14.29;85.21
829;BME280;396;52.558;13.188;2022-07-10T04:00:36;101420.78;;;14.33;85.10
829;BME280;396;52.558;13.188;2022-07-10T04:03:05;101418.28;;;14.36;84.94
829;BME280;396;52.558;13.188;2022-07-10T04:05:33;101418.47;;;14.40;84.48
829;BME280;396;52.558;13.188;2022-07-10T04:08:00;101426.84;;;14.44;84.55
829;BME280;396;52.558;13.188;2022-07-10T04:10:29;101425.31;;;14.37;84.84
829;BME280;396;52.558;13.188;2022-07-10T04:12:56;101425.13;;;14.34;85.04
829;BME280;396;52.558;13.188;2022-07-10T04:15:23;101423.72;;;14.36;85.41
829;BME280;396;52.558;13.188;2022-07-10T04:17:50;101425.84;;;14.39;85.08
829;BME280;396;52.558;13.188;2022-07-10T04:20:17;101420.28;;;14.45;84.74
829;BME280;396;52.558;13.188;2022-07-10T04:22:45;101423.41;;;14.52;84.20
829;BME280;396;52.558;13.188;2022-07-10T04:25:12;101414.50;;;14.46;85.04
829;BME280;396;52.558;13.188;2022-07-10T04:27:40;101417.56;;;14.45;84.67
829;BME280;396;52.558;13.188;2022-07-10T04:30:07;101420.28;;;14.45;84.58
829;BME280;396;52.558;13.188;2022-07-10T04:32:34;101418.84;;;14.47;84.87
829;BME280;396;52.558;13.188;2022-07-10T04:35:00;101414.22;;;14.48;84.81
829;BME280;396;52.558;13.188;2022-07-10T04:37:27;101415.22;;;14.52;84.85
829;BME280;396;52.558;13.188;2022-07-10T04:39:54;101418.16;;;14.55;84.54
829;BME280;396;52.558;13.188;2022-07-10T04:42:21;101413.81;;;14.54;84.36
829;BME280;396;52.558;13.188;2022-07-10T04:44:49;101411.78;;;14.60;84.17
829;BME280;396;52.558;13.188;2022-07-10T04:47:15;101419.16;;;14.59;84.59
829;BME280;396;52.558;13.188;2022-07-10T04:49:42;101426.53;;;14.59;84.67
829;BME280;396;52.558;13.188;2022-07-10T04:52:09;101419.16;;;14.59;84.84
829;BME280;396;52.558;13.188;2022-07-10T04:54:35;101411.16;;;14.63;85.34
829;BME280;396;52.558;13.188;2022-07-10T04:57:02;101412.38;;;14.71;85.19
829;BME280;396;52.558;13.188;2022-07-10T04:59:29;101414.88;;;14.67;84.86
829;BME280;396;52.558;13.188;2022-07-10T05:01:57;101417.50;;;14.72;84.19
829;BME280;396;52.558;13.188;2022-07-10T05:04:23;101417.38;;;14.77;84.42
829;BME280;396;52.558;13.188;2022-07-10T05:06:50;101416.97;;;14.84;84.15
829;BME280;396;52.558;13.188;2022-07-10T05:09:17;101419.50;;;14.80;83.26
829;BME280;396;52.558;13.188;2022-07-10T05:11:45;101412.56;;;14.74;84.03
829;BME280;396;52.558;13.188;2022-07-10T05:14:11;101403.31;;;14.84;84.10
829;BME280;396;52.558;13.188;2022-07-10T05:16:38;101412.19;;;14.89;83.76
829;BME280;396;52.558;13.188;2022-07-10T05:19:06;101405.41;;;14.87;85.16
829;BME280;396;52.558;13.188;2022-07-10T05:21:32;101414.28;;;14.93;83.82
829;BME280;396;52.558;13.188;2022-07-10T05:23:59;101407.59;;;14.99;83.41
829;BME280;396;52.558;13.188;2022-07-10T05:26:26;101401.00;;;15.00;83.41
829;BME280;396;52.558;13.188;2022-07-10T05:28:52;101406.19;;;15.01;83.84
829;BME280;396;52.558;13.188;2022-07-10T05:31:19;101407.03;;;15.10;83.70
829;BME280;396;52.558;13.188;2022-07-10T05:33:46;101408.69;;;15.20;82.27
829;BME280;396;52.558;13.188;2022-07-10T05:36:14;101410.50;;;15.25;82.13
829;BME280;396;52.558;13.188;2022-07-10T05:38:40;101410.81;;;15.23;82.20
829;BME280;396;52.558;13.188;2022-07-10T05:41:07;101409.69;;;15.24;81.61
829;BME280;396;52.558;13.188;2022-07-10T05:43:34;101405.34;;;15.23;82.61
829;BME280;396;52.558;13.188;2022-07-10T05:46:01;101406.22;;;15.32;82.25
829;BME280;396;52.558;13.188;2022-07-10T05:48:27;101409.94;;;15.36;81.44
829;BME280;396;52.558;13.188;2022-07-10T05:50:54;101411.81;;;15.36;81.62
829;BME280;396;52.558;13.188;2022-07-10T05:53:22;101402.53;;;15.37;80.29
829;BME280;396;52.558;13.188;2022-07-10T05:55:48;101410.50;;;15.25;81.36
829;BME280;396;52.558;13.188;2022-07-10T05:58:16;101408.44;;;15.30;81.37
829;BME280;396;52.558;13.188;2022-07-10T06:00:42;101411.03;;;15.35;80.91
829;BME280;396;52.558;13.188;2022-07-10T06:03:11;101421.31;;;15.38;80.97
829;BME280;396;52.558;13.188;2022-07-10T06:05:38;101420.06;;;15.45;80.41
829;BME280;396;52.558;13.188;2022-07-10T06:08:05;101417.03;;;15.46;80.83
829;BME280;396;52.558;13.188;2022-07-10T06:10:33;101422.59;;;15.32;81.05
829;BME280;396;52.558;13.188;2022-07-10T06:12:59;101418.91;;;15.37;80.20
829;BME280;396;52.558;13.188;2022-07-10T06:15:26;101407.25;;;15.23;80.40
829;BME280;396;52.558;13.188;2022-07-10T06:17:56;101419.81;;;15.24;80.71
829;BME280;396;52.558;13.188;2022-07-10T06:20:23;101417.13;;;15.32;80.20
829;BME280;396;52.558;13.188;2022-07-10T06:22:49;101413.19;;;15.47;79.98
829;BME280;396;52.558;13.188;2022-07-10T06:25:16;101417.50;;;15.48;78.67
829;BME280;396;52.558;13.188;2022-07-10T06:27:44;101409.19;;;15.53;78.79
829;BME280;396;52.558;13.188;2022-07-10T06:30:10;101407.91;;;15.51;79.25
829;BME280;396;52.558;13.188;2022-07-10T06:32:37;101409.69;;;15.55;78.79
829;BME280;396;52.558;13.188;2022-07-10T06:35:05;101412.53;;;15.73;78.50
829;BME280;396;52.558;13.188;2022-07-10T06:37:32;101407.94;;;15.91;78.26
829;BME280;396;52.558;13.188;2022-07-10T06:39:59;101423.84;;;15.97;77.81
829;BME280;396;52.558;13.188;2022-07-10T06:42:26;101408.13;;;16.03;77.98
829;BME280;396;52.558;13.188;2022-07-10T06:44:54;101415.69;;;16.06;76.66
829;BME280;396;52.558;13.188;2022-07-10T06:47:20;101414.91;;;16.14;75.99
829;BME280;396;52.558;13.188;2022-07-10T06:50:06;101408.31;;;16.15;73.86
829;BME280;396;52.558;13.188;2022-07-10T06:52:33;101413.75;;;16.06;74.83
829;BME280;396;52.558;13.188;2022-07-10T06:55:00;101422.13;;;16.10;75.88
829;BME280;396;52.558;13.188;2022-07-10T06:57:27;101417.97;;;16.21;74.50
829;BME280;396;52.558;13.188;2022-07-10T06:59:56;101421.50;;;16.13;74.66
829;BME280;396;52.558;13.188;2022-07-10T07:02:22;101423.88;;;16.06;73.86
829;BME280;396;52.558;13.188;2022-07-10T07:04:49;101422.91;;;16.02;74.07
829;BME280;396;52.558;13.188;2022-07-10T07:07:15;101421.09;;;15.88;74.42
829;BME280;396;52.558;13.188;2022-07-10T07:09:42;101427.66;;;15.79;75.18
829;BME280;396;52.558;13.188;2022-07-10T07:12:10;101414.13;;;15.74;74.57
829;BME280;396;52.558;13.188;2022-07-10T07:14:36;101415.22;;;15.64;74.21
829;BME280;396;52.558;13.188;2022-07-10T07:17:05;101403.91;;;15.57;75.43
829;BME280;396;52.558;13.188;2022-07-10T07:19:34;101404.03;;;15.52;77.13
829;BME280;396;52.558;13.188;2022-07-10T07:22:14;101404.56;;;15.54;74.20
829;BME280;396;52.558;13.188;2022-07-10T07:24:58;101404.78;;;15.66;74.84
829;BME280;396;52.558;13.188;2022-07-10T07:27:25;101401.56;;;15.64;73.79
829;BME280;396;52.558;13.188;2022-07-10T07:29:52;101392.00;;;15.84;71.25
829;BME280;396;52.558;13.188;2022-07-10T07:32:20;101388.06;;;16.07;69.30
829;BME280;396;52.558;13.188;2022-07-10T07:34:47;101389.88;;;16.38;63.08
829;BME280;396;52.558;13.188;2022-07-10T07:37:13;101391.97;;;16.67;59.46
829;BME280;396;52.558;13.188;2022-07-10T07:39:40;101403.09;;;16.79;60.06
829;BME280;396;52.558;13.188;2022-07-10T07:42:06;101391.63;;;16.95;58.46
829;BME280;396;52.558;13.188;2022-07-10T07:44:33;101390.78;;;17.20;59.01
829;BME280;396;52.558;13.188;2022-07-10T07:46:59;101398.66;;;17.30;58.02
829;BME280;396;52.558;13.188;2022-07-10T07:49:27;101398.81;;;17.34;59.15
829;BME280;396;52.558;13.188;2022-07-10T07:51:54;101404.09;;;17.39;59.21
829;BME280;396;52.558;13.188;2022-07-10T07:54:21;101398.66;;;17.30;60.85
829;BME280;396;52.558;13.188;2022-07-10T07:56:47;101407.84;;;17.26;61.69
829;BME280;396;52.558;13.188;2022-07-10T07:59:14;101411.91;;;17.20;62.38
829;BME280;396;52.558;13.188;2022-07-10T08:01:40;101411.44;;;17.09;63.35
829;BME280;396;52.558;13.188;2022-07-10T08:04:07;101412.56;;;16.90;64.39
829;BME280;396;52.558;13.188;2022-07-10T08:06:35;101412.56;;;17.08;63.31
829;BME280;396;52.558;13.188;2022-07-10T08:09:02;101408.38;;;17.10;63.01
829;BME280;396;52.558;13.188;2022-07-10T08:11:29;101398.69;;;17.13;63.69
829;BME280;396;52.558;13.188;2022-07-10T08:13:56;101410.31;;;17.10;63.03
829;BME280;396;52.558;13.188;2022-07-10T08:16:23;101405.13;;;17.08;62.91
829;BME280;396;52.558;13.188;2022-07-10T08:18:50;101418.34;;;17.06;62.29
829;BME280;396;52.558;13.188;2022-07-10T08:21:16;101420.47;;;17.01;63.09
829;BME280;396;52.558;13.188;2022-07-10T08:23:45;101421.72;;;17.12;63.21
829;BME280;396;52.558;13.188;2022-07-10T08:26:11;101413.69;;;17.07;63.71
829;BME280;396;52.558;13.188;2022-07-10T08:28:38;101422.72;;;16.99;64.77
829;BME280;396;52.558;13.188;2022-07-10T08:31:05;101418.84;;;17.00;64.88
829;BME280;396;52.558;13.188;2022-07-10T08:33:31;101415.63;;;17.06;64.74
829;BME280;396;52.558;13.188;2022-07-10T08:35:58;101427.38;;;17.15;64.96
829;BME280;396;52.558;13.188;2022-07-10T08:38:25;101424.16;;;17.22;64.41
829;BME280;396;52.558;13.188;2022-07-10T08:40:54;101423.66;;;17.20;62.81
829;BME280;396;52.558;13.188;2022-07-10T08:43:22;101420.72;;;17.25;63.60
829;BME280;396;52.558;13.188;2022-07-10T08:45:50;101419.63;;;17.18;62.29
829;BME280;396;52.558;13.188;2022-07-10T08:48:21;101414.09;;;17.35;62.41
829;BME280;396;52.558;13.188;2022-07-10T08:50:52;101414.25;;;17.38;61.44
829;BME280;396;52.558;13.188;2022-07-10T08:53:23;101413.56;;;17.59;60.77
829;BME280;396;52.558;13.188;2022-07-10T08:55:53;101421.41;;;17.78;59.12
829;BME280;396;52.558;13.188;2022-07-10T08:58:22;101427.19;;;17.85;58.88
829;BME280;396;52.558;13.188;2022-07-10T09:00:48;101419.16;;;17.80;57.62
829;BME280;396;52.558;13.188;2022-07-10T09:03:15;101423.81;;;17.79;59.27
829;BME280;396;52.558;13.188;2022-07-10T09:05:42;101420.59;;;17.77;58.77
829;BME280;396;52.558;13.188;2022-07-10T09:08:21;101427.34;;;17.88;60.25
829;BME280;396;52.558;13.188;2022-07-10T09:10:48;101419.44;;;17.87;58.44
829;BME280;396;52.558;13.188;2022-07-10T09:13:17;101424.75;;;17.83;59.23
829;BME280;396;52.558;13.188;2022-07-10T09:15:48;101432.75;;;17.97;57.55
829;BME280;396;52.558;13.188;2022-07-10T09:18:19;101426.72;;;18.12;58.22
829;BME280;396;52.558;13.188;2022-07-10T09:20:45;101425.97;;;18.33;58.48
829;BME280;396;52.558;13.188;2022-07-10T09:23:16;101416.78;;;18.50;56.92
829;BME280;396;52.558;13.188;2022-07-10T09:25:44;101418.13;;;18.44;55.73
829;BME280;396;52.558;13.188;2022-07-10T09:28:13;101425.41;;;18.39;56.24
829;BME280;396;52.558;13.188;2022-07-10T09:30:43;101422.59;;;18.27;56.17
829;BME280;396;52.558;13.188;2022-07-10T09:33:21;101430.00;;;18.27;56.62
829;BME280;396;52.558;13.188;2022-07-10T09:36:00;101428.00;;;18.36;57.41
829;BME280;396;52.558;13.188;2022-07-10T09:38:51;101427.00;;;18.20;57.83
829;BME280;396;52.558;13.188;2022-07-10T09:41:21;101423.31;;;18.15;55.23
829;BME280;396;52.558;13.188;2022-07-10T09:43:49;101431.09;;;18.05;54.89
829;BME280;396;52.558;13.188;2022-07-10T09:46:19;101428.84;;;18.07;55.39
829;BME280;396;52.558;13.188;2022-07-10T09:48:46;101420.84;;;18.23;56.06
829;BME280;396;52.558;13.188;2022-07-10T09:51:13;101427.81;;;18.41;56.02
829;BME280;396;52.558;13.188;2022-07-10T09:53:41;101423.50;;;18.61;54.22
829;BME280;396;52.558;13.188;2022-07-10T09:56:09;101412.66;;;18.64;53.20
829;BME280;396;52.558;13.188;2022-07-10T09:58:36;101413.72;;;18.51;53.72
829;BME280;396;52.558;13.188;2022-07-10T10:01:04;101423.69;;;18.56;53.83
829;BME280;396;52.558;13.188;2022-07-10T10:03:37;101423.28;;;18.45;53.92
829;BME280;396;52.558;13.188;2022-07-10T10:06:10;101426.91;;;18.58;54.18
829;BME280;396;52.558;13.188;2022-07-10T10:08:46;101431.94;;;18.56;52.93
829;BME280;396;52.558;13.188;2022-07-10T10:11:16;101429.38;;;18.51;53.45
829;BME280;396;52.558;13.188;2022-07-10T10:13:49;101425.75;;;18.59;54.17
829;BME280;396;52.558;13.188;2022-07-10T10:16:18;101429.91;;;18.65;51.66
829;BME280;396;52.558;13.188;2022-07-10T10:18:47;101427.94;;;18.74;51.31
829;BME280;396;52.558;13.188;2022-07-10T10:21:32;101431.19;;;18.88;51.98
829;BME280;396;52.558;13.188;2022-07-10T10:24:00;101438.56;;;18.97;51.87
829;BME280;396;52.558;13.188;2022-07-10T10:26:27;101442.53;;;18.87;51.47
829;BME280;396;52.558;13.188;2022-07-10T10:28:56;101431.72;;;18.61;52.37
829;BME280;396;52.558;13.188;2022-07-10T10:31:24;101447.28;;;18.78;53.13
829;BME280;396;52.558;13.188;2022-07-10T10:33:56;101442.44;;;18.96;53.69
829;BME280;396;52.558;13.188;2022-07-10T10:36:45;101441.56;;;19.04;53.49
829;BME280;396;52.558;13.188;2022-07-10T10:39:13;101436.91;;;18.83;52.22
829;BME280;396;52.558;13.188;2022-07-10T10:41:46;101443.19;;;18.84;52.71
829;BME280;396;52.558;13.188;2022-07-10T10:44:27;101444.94;;;18.88;53.34
829;BME280;396;52.558;13.188;2022-07-10T10:47:05;101445.91;;;19.05;52.81
829;BME280;396;52.558;13.188;2022-07-10T10:49:55;101438.91;;;19.28;52.15
829;BME280;396;52.558;13.188;2022-07-10T10:52:27;101443.38;;;19.33;52.33
829;BME280;396;52.558;13.188;2022-07-10T10:55:02;101437.06;;;19.32;52.33
829;BME280;396;52.558;13.188;2022-07-10T10:57:39;101444.22;;;19.46;51.39
829;BME280;396;52.558;13.188;2022-07-10T11:00:12;101438.31;;;19.23;51.75
829;BME280;396;52.558;13.188;2022-07-10T11:02:41;101438.22;;;19.31;51.39
829;BME280;396;52.558;13.188;2022-07-10T11:05:41;101458.84;;;19.37;52.00
829;BME280;396;52.558;13.188;2022-07-10T11:08:08;101444.09;;;19.42;51.70
829;BME280;396;52.558;13.188;2022-07-10T11:10:37;101446.47;;;19.31;52.53
829;BME280;396;52.558;13.188;2022-07-10T11:13:05;101443.59;;;19.28;53.63
829;BME280;396;52.558;13.188;2022-07-10T11:15:34;101443.72;;;19.31;51.97
829;BME280;396;52.558;13.188;2022-07-10T11:18:06;101452.91;;;19.35;51.51
829;BME280;396;52.558;13.188;2022-07-10T11:20:35;101460.75;;;19.25;51.70
829;BME280;396;52.558;13.188;2022-07-10T11:23:37;101454.50;;;19.36;52.52
829;BME280;396;52.558;13.188;2022-07-10T11:26:10;101445.94;;;19.50;50.85
829;BME280;396;52.558;13.188;2022-07-10T11:28:49;101445.91;;;19.71;51.29
829;BME280;396;52.558;13.188;2022-07-10T11:31:16;101440.50;;;19.99;52.15
829;BME280;396;52.558;13.188;2022-07-10T11:33:44;101444.44;;;20.10;48.28
829;BME280;396;52.558;13.188;2022-07-10T11:36:13;101444.88;;;20.25;49.73
829;BME280;396;52.558;13.188;2022-07-10T11:38:42;101441.09;;;20.17;48.36
829;BME280;396;52.558;13.188;2022-07-10T11:41:13;101446.94;;;19.91;50.20
829;BME280;396;52.558;13.188;2022-07-10T11:43:50;101459.59;;;19.59;50.08
829;BME280;396;52.558;13.188;2022-07-10T11:46:18;101445.81;;;19.47;50.49
829;BME280;396;52.558;13.188;2022-07-10T11:48:47;101451.13;;;19.19;50.40
829;BME280;396;52.558;13.188;2022-07-10T11:51:20;101443.53;;;19.49;49.80
829;BME280;396;52.558;13.188;2022-07-10T11:53:56;101451.50;;;19.62;48.56
829;BME280;396;52.558;13.188;2022-07-10T11:56:23;101448.38;;;19.64;49.63
829;BME280;396;52.558;13.188;2022-07-10T11:58:55;101454.81;;;19.68;48.70
829;BME280;396;52.558;13.188;2022-07-10T12:01:22;101454.38;;;19.78;48.05
829;BME280;396;52.558;13.188;2022-07-10T12:03:57;101449.09;;;19.85;48.70
829;BME280;396;52.558;13.188;2022-07-10T12:06:24;101454.38;;;19.90;48.83
829;BME280;396;52.558;13.188;2022-07-10T12:08:52;101455.41;;;19.86;48.68
829;BME280;396;52.558;13.188;2022-07-10T12:11:20;101458.03;;;19.70;49.08
829;BME280;396;52.558;13.188;2022-07-10T12:13:49;101451.00;;;19.60;50.24
829;BME280;396;52.558;13.188;2022-07-10T12:16:16;101447.59;;;19.63;49.69
829;BME280;396;52.558;13.188;2022-07-10T12:18:44;101451.84;;;19.85;50.34
829;BME280;396;52.558;13.188;2022-07-10T12:21:13;101454.63;;;19.98;49.30
829;BME280;396;52.558;13.188;2022-07-10T12:23:41;101454.97;;;19.84;50.31
829;BME280;396;52.558;13.188;2022-07-10T12:26:09;101450.00;;;19.65;48.99
829;BME280;396;52.558;13.188;2022-07-10T12:28:51;101451.31;;;19.47;50.23
829;BME280;396;52.558;13.188;2022-07-10T12:31:22;101453.34;;;19.37;50.04
829;BME280;396;52.558;13.188;2022-07-10T12:33:53;101447.63;;;19.30;51.17
829;BME280;396;52.558;13.188;2022-07-10T12:36:24;101453.03;;;19.39;50.93
829;BME280;396;52.558;13.188;2022-07-10T12:38:55;101451.69;;;19.57;50.85
829;BME280;396;52.558;13.188;2022-07-10T12:41:23;101452.13;;;19.59;50.15
829;BME280;396;52.558;13.188;2022-07-10T12:43:52;101453.25;;;19.79;51.02
829;BME280;396;52.558;13.188;2022-07-10T12:46:21;101443.16;;;19.96;49.14
829;BME280;396;52.558;13.188;2022-07-10T12:49:01;101444.88;;;20.12;48.98
829;BME280;396;52.558;13.188;2022-07-10T12:51:29;101452.88;;;20.42;48.33
829;BME280;396;52.558;13.188;2022-07-10T12:53:57;101446.72;;;20.85;47.29
829;BME280;396;52.558;13.188;2022-07-10T12:56:34;101441.94;;;20.98;46.96
829;BME280;396;52.558;13.188;2022-07-10T12:59:03;101446.59;;;20.82;47.27
829;BME280;396;52.558;13.188;2022-07-10T13:01:40;101454.00;;;20.53;47.28
829;BME280;396;52.558;13.188;2022-07-10T13:04:07;101451.28;;;20.29;49.03
829;BME280;396;52.558;13.188;2022-07-10T13:06:36;101454.16;;;20.20;49.84
829;BME280;396;52.558;13.188;2022-07-10T13:09:18;101454.59;;;20.22;48.59
829;BME280;396;52.558;13.188;2022-07-10T13:11:44;101455.50;;;20.26;49.58
829;BME280;396;52.558;13.188;2022-07-10T13:14:12;101454.72;;;20.38;49.61
829;BME280;396;52.558;13.188;2022-07-10T13:16:39;101453.91;;;20.37;49.39
829;BME280;396;52.558;13.188;2022-07-10T13:19:06;101449.09;;;20.59;49.01
829;BME280;396;52.558;13.188;2022-07-10T13:21:32;101451.25;;;20.53;48.61
829;BME280;396;52.558;13.188;2022-07-10T13:23:59;101454.13;;;20.57;47.79
829;BME280;396;52.558;13.188;2022-07-10T13:26:26;101446.09;;;20.27;49.29
829;BME280;396;52.558;13.188;2022-07-10T13:28:54;101456.66;;;20.13;49.14